createdAt,value
2023-03-26T00:02:12.287Z,82.97
2023-03-26T00:05:15.602Z,82.91
2023-03-26T00:08:18.514Z,82.93
2023-03-26T00:11:23.005Z,84.08
2023-03-26T00:14:27.621Z,84.72
2023-03-26T00:17:30.847Z,85.56
2023-03-26T00:20:33.608Z,83.97
2023-03-26T00:23:37.207Z,84.42
2023-03-26T00:26:41.231Z,84.70
2023-03-26T00:29:43.964Z,84.18
2023-03-26T00:32:53.723Z,85.99
2023-03-26T00:35:59.251Z,85.67
2023-03-26T00:39:05.941Z,87.55
2023-03-26T00:42:09.003Z,84.87
2023-03-26T00:45:12.194Z,85.43
2023-03-26T00:48:15.187Z,85.95
2023-03-26T00:51:18.898Z,86.45
2023-03-26T00:54:21.670Z,87.05
2023-03-26T00:57:34.867Z,88.94
2023-03-26T01:00:48.895Z,88.28
2023-03-26T01:04:08.106Z,90.16
2023-03-26T01:07:13.764Z,87.25
2023-03-26T01:10:16.559Z,86.40
2023-03-26T01:13:24.166Z,86.53
2023-03-26T01:16:27.111Z,86.35
2023-03-26T01:19:38.895Z,85.30
2023-03-26T01:22:47.988Z,83.12
2023-03-26T01:25:58.155Z,82.45
2023-03-26T01:29:02.924Z,82.86
2023-03-26T01:32:05.443Z,80.42
2023-03-26T01:35:26.686Z,80.77
2023-03-26T01:38:48.651Z,80.65
2023-03-26T01:41:57.445Z,79.53
2023-03-26T01:45:16.251Z,78.94
2023-03-26T01:48:18.899Z,79.27
2023-03-26T01:51:29.460Z,78.06
2023-03-26T01:54:32.649Z,78.84
2023-03-26T01:57:44.744Z,78.07
2023-03-26T02:00:56.020Z,78.29
2023-03-26T02:04:02.932Z,80.20
2023-03-26T02:07:18.548Z,80.42
2023-03-26T02:10:29.094Z,80.45
2023-03-26T02:13:32.824Z,81.39
2023-03-26T02:16:35.380Z,81.82
2023-03-26T02:19:42.465Z,82.42
2023-03-26T02:22:46.307Z,82.72
2023-03-26T02:25:49.136Z,84.25
2023-03-26T02:28:51.712Z,84.15
2023-03-26T02:31:54.312Z,84.16
2023-03-26T02:34:56.913Z,85.74
2023-03-26T02:37:59.576Z,84.64
2023-03-26T02:41:03.227Z,85.17
2023-03-26T02:44:06.490Z,85.57
2023-03-26T02:47:08.896Z,86.57
2023-03-26T02:50:12.360Z,85.81
2023-03-26T02:53:15.146Z,86.38
2023-03-26T02:56:18.318Z,85.82
2023-03-26T02:59:21.014Z,86.28
2023-03-26T03:02:24.706Z,87.07
2023-03-26T03:05:28.006Z,88.56
2023-03-26T03:08:31.227Z,88.24
2023-03-26T03:11:34.322Z,89.05
2023-03-26T03:14:38.555Z,89.31
2023-03-26T03:17:42.091Z,89.30
2023-03-26T03:20:45.421Z,90.70
2023-03-26T03:23:48.623Z,89.74
2023-03-26T03:26:55.629Z,91.45
2023-03-26T03:29:59.400Z,90.88
2023-03-26T03:33:02.922Z,91.11
2023-03-26T03:36:20.420Z,91.22
2023-03-26T03:39:24.499Z,92.32
2023-03-26T03:42:27.893Z,93.20
2023-03-26T03:45:30.645Z,94.60
2023-03-26T03:48:33.982Z,94.56
2023-03-26T03:51:36.425Z,95.73
2023-03-26T03:54:38.980Z,96.27
2023-03-26T03:57:41.146Z,96.81
2023-03-26T04:00:45.329Z,98.45
2023-03-26T04:03:48.515Z,97.66
2023-03-26T04:06:51.806Z,97.86
2023-03-26T04:09:54.848Z,98.49
2023-03-26T04:12:57.976Z,98.83
2023-03-26T04:16:00.811Z,99.02
2023-03-26T04:19:04.337Z,98.62
2023-03-26T04:22:07.295Z,99.04
2023-03-26T04:25:10.380Z,99.23
2023-03-26T04:28:15.422Z,100.00
2023-03-26T04:31:24.945Z,100.00
2023-03-26T04:34:28.311Z,100.00
2023-03-26T04:37:35.253Z,100.00
2023-03-26T04:40:39.469Z,100.00
2023-03-26T04:43:47.805Z,100.00
2023-03-26T04:46:53.111Z,100.00
2023-03-26T04:49:55.878Z,100.00
2023-03-26T04:52:59.105Z,100.00
2023-03-26T04:56:14.047Z,100.00
2023-03-26T04:59:37.650Z,100.00
2023-03-26T05:02:42.165Z,100.00
2023-03-26T05:05:44.931Z,100.00
2023-03-26T05:08:48.066Z,100.00
2023-03-26T05:11:51.374Z,98.20
2023-03-26T05:14:54.056Z,96.21
2023-03-26T05:17:56.768Z,94.54
2023-03-26T05:20:59.426Z,92.90
2023-03-26T05:24:02.636Z,92.86
2023-03-26T05:27:05.667Z,89.41
2023-03-26T05:30:08.958Z,88.56
2023-03-26T05:33:11.615Z,87.36
2023-03-26T05:36:15.693Z,87.06
2023-03-26T05:39:18.550Z,85.90
2023-03-26T05:42:21.274Z,83.50
2023-03-26T05:45:23.631Z,83.83
2023-03-26T05:48:26.776Z,80.77
2023-03-26T05:51:29.229Z,77.50
2023-03-26T05:54:31.704Z,77.49
2023-03-26T05:57:35.820Z,74.01
2023-03-26T06:00:38.918Z,71.56
2023-03-26T06:03:41.616Z,72.80
2023-03-26T06:06:45.342Z,70.46
2023-03-26T06:09:47.761Z,68.15
2023-03-26T06:12:50.787Z,62.88
2023-03-26T06:15:53.555Z,59.35
2023-03-26T06:18:57.402Z,51.97
2023-03-26T06:21:59.892Z,41.66
2023-03-26T06:25:02.575Z,37.27
2023-03-26T06:28:06.352Z,35.53
2023-03-26T06:31:09.714Z,33.91
2023-03-26T06:34:12.738Z,34.27
2023-03-26T06:37:16.041Z,37.76
2023-03-26T06:40:19.167Z,41.40
2023-03-26T06:43:21.919Z,38.23
2023-03-26T06:46:25.726Z,32.31
2023-03-26T06:49:28.471Z,28.51
2023-03-26T06:52:31.554Z,27.00
2023-03-26T06:55:34.128Z,27.71
2023-03-26T06:58:36.748Z,26.91
2023-03-26T07:01:39.288Z,25.60
2023-03-26T07:04:41.912Z,24.94
2023-03-26T07:07:46.804Z,24.35
2023-03-26T07:10:49.605Z,25.00
2023-03-26T07:13:52.114Z,22.73
2023-03-26T07:16:54.668Z,22.57
2023-03-26T07:19:59.046Z,24.13
2023-03-26T07:23:02.079Z,30.74
2023-03-26T07:26:23.665Z,37.34
2023-03-26T07:29:34.217Z,39.75
2023-03-26T07:32:41.086Z,39.40
2023-03-26T07:36:04.182Z,35.92
2023-03-26T07:39:06.729Z,34.94
2023-03-26T07:42:29.588Z,37.32
2023-03-26T07:45:40.669Z,40.81
2023-03-26T07:48:44.860Z,45.35
2023-03-26T07:51:48.147Z,48.07
2023-03-26T07:54:51.251Z,48.09
2023-03-26T07:58:01.706Z,48.83
2023-03-26T08:01:07.631Z,48.53
2023-03-26T08:04:23.165Z,47.40
2023-03-26T08:07:37.892Z,45.36
2023-03-26T08:10:49.833Z,46.52
2023-03-26T08:13:57.387Z,48.49
2023-03-26T08:17:10.448Z,49.04
2023-03-26T08:20:31.493Z,49.59
2023-03-26T08:23:34.035Z,51.54
2023-03-26T08:26:44.525Z,50.64
2023-03-26T08:30:05.688Z,48.62
2023-03-26T08:33:14.549Z,48.37
2023-03-26T08:36:17.008Z,50.85
2023-03-26T08:39:20.433Z,49.28
2023-03-26T08:42:54.753Z,49.47
2023-03-26T08:45:57.814Z,50.46
2023-03-26T08:49:13.424Z,50.26
2023-03-26T08:52:28.317Z,50.32
2023-03-26T08:55:57.481Z,50.04
2023-03-26T08:59:18.624Z,50.06
2023-03-26T09:02:27.140Z,49.95
2023-03-26T09:05:44.990Z,45.88
2023-03-26T09:09:06.000Z,45.97
2023-03-26T09:12:36.204Z,43.18
2023-03-26T09:16:08.513Z,44.56
2023-03-26T09:19:37.100Z,42.90
2023-03-26T09:22:42.483Z,43.07
2023-03-26T09:26:02.153Z,43.14
2023-03-26T09:29:17.593Z,44.09
2023-03-26T09:32:38.663Z,43.75
2023-03-26T09:35:50.537Z,42.14
2023-03-26T09:38:59.046Z,41.44
2023-03-26T09:42:17.778Z,41.41
2023-03-26T09:45:21.208Z,39.81
2023-03-26T09:48:42.102Z,41.62
2023-03-26T09:51:44.611Z,41.83
2023-03-26T09:54:57.426Z,41.01
2023-03-26T09:58:12.082Z,41.01
2023-03-26T10:01:18.834Z,40.89
2023-03-26T10:04:33.658Z,41.41
2023-03-26T10:07:48.218Z,42.56
2023-03-26T10:10:51.263Z,42.45
2023-03-26T10:14:12.301Z,44.85
2023-03-26T10:17:26.662Z,44.15
2023-03-26T10:20:49.509Z,45.00
2023-03-26T10:23:53.328Z,45.00
2023-03-26T10:27:14.130Z,47.39
2023-03-26T10:30:38.417Z,50.81
2023-03-26T10:33:46.857Z,70.32
2023-03-26T10:36:57.038Z,83.47
2023-03-26T10:40:14.240Z,89.43
2023-03-26T10:43:28.344Z,100.00
2023-03-26T10:46:39.494Z,100.00
2023-03-26T10:49:53.806Z,100.00
2023-03-26T10:53:10.374Z,100.00
2023-03-26T10:56:21.888Z,97.33
2023-03-26T10:59:27.052Z,89.07
2023-03-26T11:02:40.997Z,86.45
2023-03-26T11:06:02.904Z,78.23
2023-03-26T11:09:08.077Z,82.15
2023-03-26T11:12:25.463Z,84.85
2023-03-26T11:15:36.416Z,89.43
2023-03-26T11:18:38.410Z,88.19
2023-03-26T11:22:12.665Z,90.48
2023-03-26T11:25:23.747Z,91.06
2023-03-26T11:28:31.693Z,84.61
2023-03-26T11:31:33.703Z,85.07
2023-03-26T11:34:40.540Z,84.65
2023-03-26T11:37:43.853Z,79.07
2023-03-26T11:40:50.938Z,75.23
2023-03-26T11:44:05.943Z,80.54
2023-03-26T11:47:10.583Z,77.00
2023-03-26T11:50:27.273Z,75.25
2023-03-26T11:53:31.462Z,77.09
2023-03-26T11:56:36.085Z,69.03
2023-03-26T11:59:55.724Z,72.63
2023-03-26T12:02:59.757Z,61.52
2023-03-26T12:06:03.149Z,64.46
2023-03-26T12:09:16.995Z,64.33
2023-03-26T12:12:19.995Z,58.37
2023-03-26T12:15:22.799Z,61.92
2023-03-26T12:18:26.729Z,62.57
2023-03-26T12:21:29.870Z,60.55
2023-03-26T12:24:36.472Z,59.46
2023-03-26T12:27:43.236Z,54.26
2023-03-26T12:30:59.963Z,55.66
2023-03-26T12:34:15.549Z,53.80
2023-03-26T12:37:38.185Z,56.14
2023-03-26T12:40:42.709Z,50.83
2023-03-26T12:44:55.268Z,52.09
2023-03-26T12:47:55.305Z,50.05
2023-03-26T12:50:53.483Z,50.97
2023-03-26T12:54:05.966Z,45.94
2023-03-26T12:57:27.034Z,43.83
2023-03-26T13:00:36.280Z,43.90
2023-03-26T13:03:44.740Z,43.21
2023-03-26T13:07:00.392Z,43.71
2023-03-26T13:10:23.627Z,43.21
2023-03-26T13:13:32.703Z,41.44
2023-03-26T13:16:54.175Z,42.28
2023-03-26T13:19:57.221Z,42.94
2023-03-26T13:23:09.564Z,43.13
2023-03-26T13:26:27.197Z,41.24
2023-03-26T13:29:42.766Z,42.21
2023-03-26T13:32:46.093Z,43.32
2023-03-26T13:35:51.646Z,42.29
2023-03-26T13:39:00.756Z,40.79
2023-03-26T13:42:16.183Z,38.93
2023-03-26T13:45:38.376Z,38.26
2023-03-26T13:48:50.982Z,39.97
2023-03-26T13:51:57.176Z,39.10
2023-03-26T13:55:05.560Z,39.84
2023-03-26T13:58:11.582Z,41.17
2023-03-26T14:01:34.534Z,40.65
2023-03-26T14:04:44.641Z,42.50
2023-03-26T14:07:50.911Z,37.84
2023-03-26T14:10:57.590Z,39.35
2023-03-26T14:14:23.238Z,36.79
2023-03-26T14:17:29.009Z,38.20
2023-03-26T14:20:56.930Z,37.68
2023-03-26T14:24:18.016Z,38.62
2023-03-26T14:27:29.773Z,36.83
2023-03-26T14:30:55.043Z,37.44
2023-03-26T14:34:24.068Z,36.74
2023-03-26T14:37:29.750Z,37.30
2023-03-26T14:40:41.509Z,36.17
2023-03-26T14:43:43.821Z,35.76
2023-03-26T14:46:50.132Z,34.17
2023-03-26T14:50:04.760Z,32.66
2023-03-26T14:53:13.992Z,34.19
2023-03-26T14:56:27.550Z,34.11
2023-03-26T14:59:48.631Z,33.60
2023-03-26T15:03:10.481Z,33.30
2023-03-26T15:06:48.300Z,33.73
2023-03-26T15:10:09.394Z,34.14
2023-03-26T15:13:31.066Z,35.69
2023-03-26T15:16:48.817Z,35.43
2023-03-26T15:19:51.121Z,35.98
2023-03-26T15:23:12.449Z,36.74
2023-03-26T15:26:37.505Z,37.39
2023-03-26T15:29:54.758Z,37.51
2023-03-26T15:33:12.675Z,37.21
2023-03-26T15:36:34.754Z,36.81
2023-03-26T15:40:08.057Z,36.84
2023-03-26T15:43:15.474Z,37.18
2023-03-26T15:46:36.976Z,36.52
2023-03-26T15:49:46.093Z,36.96
2023-03-26T15:52:58.032Z,37.38
2023-03-26T15:56:18.137Z,38.64
2023-03-26T15:59:37.104Z,39.00
2023-03-26T16:03:00.107Z,40.04
2023-03-26T16:06:16.173Z,39.52
2023-03-26T16:09:32.798Z,39.67
2023-03-26T16:12:47.942Z,40.64
2023-03-26T16:16:11.414Z,40.62
2023-03-26T16:19:20.444Z,41.44
2023-03-26T16:22:42.539Z,42.22
2023-03-26T16:25:57.876Z,43.12
2023-03-26T16:29:06.462Z,41.42
2023-03-26T16:32:09.368Z,41.49
2023-03-26T16:35:15.024Z,42.59
2023-03-26T16:38:19.642Z,43.13
2023-03-26T16:41:26.792Z,43.14
2023-03-26T16:44:50.516Z,43.95
2023-03-26T16:48:16.210Z,42.59
2023-03-26T16:51:37.317Z,43.81
2023-03-26T16:54:49.286Z,42.95
2023-03-26T16:57:56.781Z,43.97
2023-03-26T17:01:11.587Z,44.40
2023-03-26T17:04:23.510Z,44.26
2023-03-26T17:07:44.711Z,45.32
2023-03-26T17:10:47.216Z,45.02
2023-03-26T17:14:08.246Z,44.90
2023-03-26T17:17:29.314Z,46.33
2023-03-26T17:20:36.104Z,46.38
2023-03-26T17:23:48.046Z,46.47
2023-03-26T17:26:50.624Z,47.99
2023-03-26T17:30:04.669Z,46.96
2023-03-26T17:33:13.682Z,48.13
2023-03-26T17:36:40.499Z,47.66
2023-03-26T17:39:43.688Z,49.13
2023-03-26T17:43:01.681Z,47.58
2023-03-26T17:46:06.439Z,48.58
2023-03-26T17:49:14.682Z,48.87
2023-03-26T17:52:21.418Z,49.28
2023-03-26T17:55:31.501Z,48.53
2023-03-26T17:58:42.918Z,48.29
2023-03-26T18:01:48.277Z,48.95
2023-03-26T18:04:54.317Z,49.49
2023-03-26T18:07:57.179Z,49.36
2023-03-26T18:11:18.144Z,49.30
2023-03-26T18:14:35.271Z,49.09
2023-03-26T18:17:43.626Z,50.54
2023-03-26T18:20:47.488Z,51.67
2023-03-26T18:23:50.968Z,52.25
2023-03-26T18:26:58.943Z,52.06
2023-03-26T18:30:02.982Z,53.06
2023-03-26T18:33:15.762Z,51.91
2023-03-26T18:36:20.019Z,53.29
2023-03-26T18:39:22.374Z,53.04
2023-03-26T18:42:25.395Z,53.09
2023-03-26T18:45:39.208Z,54.57
2023-03-26T18:48:41.944Z,54.39
2023-03-26T18:51:56.240Z,52.58
2023-03-26T18:54:59.980Z,53.11
2023-03-26T18:58:10.671Z,52.64
2023-03-26T19:01:23.841Z,53.50
2023-03-26T19:04:31.308Z,52.77
2023-03-26T19:07:35.811Z,53.57
2023-03-26T19:10:38.363Z,52.71
2023-03-26T19:13:42.113Z,56.85
2023-03-26T19:16:56.666Z,58.38
2023-03-26T19:19:59.187Z,59.44
2023-03-26T19:23:01.547Z,62.98
2023-03-26T19:26:05.528Z,66.13
2023-03-26T19:29:12.276Z,67.83
2023-03-26T19:32:40.778Z,60.70
2023-03-26T19:35:44.729Z,60.76
2023-03-26T19:38:49.865Z,65.18
2023-03-26T19:41:52.922Z,67.13
2023-03-26T19:44:56.751Z,67.57
2023-03-26T19:48:14.378Z,66.78
2023-03-26T19:51:22.396Z,67.01
2023-03-26T19:54:25.467Z,69.74
2023-03-26T19:57:32.358Z,69.09
2023-03-26T20:00:34.936Z,70.14
2023-03-26T20:03:39.639Z,68.94
2023-03-26T20:06:44.141Z,65.97
2023-03-26T20:09:46.902Z,68.93
2023-03-26T20:12:54.831Z,68.63
2023-03-26T20:16:18.818Z,68.10
2023-03-26T20:19:21.339Z,67.30
2023-03-26T20:22:24.932Z,69.22
2023-03-26T20:25:31.157Z,65.19
2023-03-26T20:28:42.432Z,63.58
2023-03-26T20:31:50.568Z,64.91
2023-03-26T20:34:53.070Z,65.06
2023-03-26T20:37:55.394Z,65.84
2023-03-26T20:40:58.564Z,62.74
2023-03-26T20:44:01.335Z,63.19
2023-03-26T20:47:04.230Z,63.38
2023-03-26T20:50:07.086Z,65.71
2023-03-26T20:53:14.377Z,62.59
2023-03-26T20:56:18.051Z,64.11
2023-03-26T20:59:22.476Z,65.18
2023-03-26T21:02:25.975Z,63.96
2023-03-26T21:05:29.708Z,63.30
2023-03-26T21:08:35.212Z,66.72
2023-03-26T21:11:41.576Z,64.34
2023-03-26T21:14:44.538Z,64.78
2023-03-26T21:17:47.304Z,64.75
2023-03-26T21:20:58.646Z,62.81
2023-03-26T21:24:14.567Z,64.27
2023-03-26T21:27:20.724Z,63.67
2023-03-26T21:30:24.016Z,64.91
2023-03-26T21:33:27.827Z,64.31
2023-03-26T21:36:30.645Z,65.20
2023-03-26T21:39:33.605Z,69.62
2023-03-26T21:42:36.267Z,71.98
2023-03-26T21:45:39.435Z,74.42
2023-03-26T21:48:42.799Z,75.99
2023-03-26T21:51:45.582Z,80.06
2023-03-26T21:54:48.666Z,76.55
2023-03-26T21:58:12.573Z,79.27
2023-03-26T22:01:20.807Z,79.36
2023-03-26T22:04:37.063Z,81.75
2023-03-26T22:07:48.452Z,79.50
2023-03-26T22:10:50.905Z,78.96
2023-03-26T22:13:53.616Z,80.92
2023-03-26T22:16:56.294Z,83.92
2023-03-26T22:19:58.844Z,87.38
2023-03-26T22:23:02.295Z,93.28
2023-03-26T22:26:05.540Z,97.77
2023-03-26T22:29:07.767Z,100.00
2023-03-26T22:32:10.129Z,100.00
2023-03-26T22:35:13.062Z,100.00
2023-03-26T22:38:17.049Z,100.00
2023-03-26T22:41:19.178Z,100.00
2023-03-26T22:44:21.627Z,100.00
2023-03-26T22:47:23.681Z,100.00
2023-03-26T22:50:26.081Z,100.00
2023-03-26T22:53:28.268Z,100.00
2023-03-26T22:56:30.590Z,100.00
2023-03-26T22:59:32.465Z,100.00
2023-03-26T23:02:34.346Z,100.00
2023-03-26T23:05:36.295Z,100.00
2023-03-26T23:08:38.890Z,100.00
2023-03-26T23:11:41.147Z,100.00
2023-03-26T23:14:43.594Z,100.00
2023-03-26T23:17:45.670Z,100.00
2023-03-26T23:20:57.920Z,100.00
2023-03-26T23:24:00.042Z,100.00
2023-03-26T23:27:01.995Z,100.00
2023-03-26T23:30:04.289Z,100.00
2023-03-26T23:33:06.377Z,100.00
2023-03-26T23:36:09.135Z,100.00
2023-03-26T23:39:11.322Z,100.00
2023-03-26T23:42:13.291Z,100.00
2023-03-26T23:45:16.524Z,100.00
2023-03-26T23:48:22.379Z,100.00
2023-03-26T23:51:24.391Z,100.00
2023-03-26T23:54:26.797Z,100.00
2023-03-26T23:57:29.153Z,100.00
